createdAt,value
2024-03-28T00:04:56.454Z,18.80
2024-03-28T00:09:59.262Z,18.60
2024-03-28T00:15:02.108Z,14.80
2024-03-28T00:20:07.157Z,14.50
2024-03-28T00:25:10.186Z,16.00
2024-03-28T00:35:19.716Z,17.00
2024-03-28T00:40:22.822Z,16.90
2024-03-28T00:50:28.324Z,15.60
2024-03-28T00:55:31.429Z,19.50
2024-03-28T01:05:37.134Z,17.80
2024-03-28T01:10:39.936Z,20.20
2024-03-28T01:15:42.735Z,16.10
2024-03-28T01:20:45.543Z,20.70
2024-03-28T01:25:48.437Z,15.20
2024-03-28T01:31:02.360Z,17.30
2024-03-28T01:36:05.798Z,20.50
2024-03-28T01:41:09.236Z,15.70
2024-03-28T01:51:23.346Z,20.30
2024-03-28T01:56:26.340Z,19.00
2024-03-28T02:06:32.577Z,17.20
2024-03-28T02:11:36.182Z,18.90
2024-03-28T02:16:39.381Z,15.90
2024-03-28T02:21:46.518Z,15.70
2024-03-28T02:26:49.706Z,17.60
2024-03-28T02:31:52.507Z,18.10
2024-03-28T02:36:55.206Z,20.10
2024-03-28T02:41:58.007Z,23.80
2024-03-28T02:47:00.808Z,18.30
2024-03-28T02:52:04.019Z,18.40
2024-03-28T02:57:06.847Z,20.10
2024-03-28T03:02:09.628Z,31.00
2024-03-28T03:07:12.552Z,33.70
2024-03-28T03:12:15.330Z,32.70
2024-03-28T03:17:18.135Z,25.10
2024-03-28T03:22:20.945Z,27.70
2024-03-28T03:27:33.666Z,23.30
2024-03-28T03:32:56.645Z,19.80
2024-03-28T03:37:59.439Z,16.50
2024-03-28T03:43:02.236Z,22.50
2024-03-28T03:48:05.995Z,24.90
2024-03-28T03:53:08.746Z,26.80
2024-03-28T03:58:11.563Z,22.00
2024-03-28T04:03:14.528Z,19.90
2024-03-28T04:08:18.202Z,17.60
2024-03-28T04:13:20.991Z,19.20
2024-03-28T04:18:23.893Z,15.20
2024-03-28T04:24:47.017Z,20.70
2024-03-28T04:29:56.193Z,22.90
2024-03-28T04:35:05.255Z,17.40
2024-03-28T04:40:10.325Z,22.50
2024-03-28T04:45:14.367Z,21.00
2024-03-28T04:50:18.769Z,24.40
2024-03-28T04:55:22.910Z,20.10
2024-03-28T05:00:26.465Z,21.10
2024-03-28T05:05:29.312Z,22.40
2024-03-28T05:10:32.674Z,18.40
2024-03-28T05:15:35.435Z,18.50
2024-03-28T05:20:38.168Z,18.40
2024-03-28T05:25:40.868Z,25.80
2024-03-28T05:35:46.890Z,19.10
2024-03-28T05:45:52.284Z,21.70
2024-03-28T05:50:55.083Z,19.00
2024-03-28T05:55:57.892Z,16.70
2024-03-28T06:01:00.682Z,16.40
2024-03-28T06:06:04.252Z,21.50
2024-03-28T06:11:07.621Z,20.70
2024-03-28T06:16:10.429Z,19.30
2024-03-28T06:21:13.323Z,17.90
2024-03-28T06:26:16.072Z,18.60
2024-03-28T06:31:18.924Z,13.50
2024-03-28T06:36:22.418Z,17.60
2024-03-28T06:41:25.479Z,19.10
2024-03-28T06:51:31.049Z,21.70
2024-03-28T06:56:33.846Z,16.20
2024-03-28T07:01:37.092Z,21.00
2024-03-28T07:06:40.269Z,20.70
2024-03-28T07:11:47.179Z,24.80
2024-03-28T07:16:50.280Z,21.40
2024-03-28T07:21:53.523Z,23.20
2024-03-28T07:26:56.390Z,19.10
2024-03-28T07:31:59.195Z,26.30
2024-03-28T07:37:01.996Z,26.70
2024-03-28T07:42:04.958Z,21.90
2024-03-28T07:47:08.009Z,20.10
2024-03-28T07:52:10.809Z,23.20
2024-03-28T07:57:13.608Z,21.00
2024-03-28T08:02:17.025Z,20.00
2024-03-28T08:07:20.030Z,25.20
2024-03-28T08:17:25.985Z,20.20
2024-03-28T08:22:29.069Z,43.30
2024-03-28T08:27:33.696Z,27.80
2024-03-28T08:32:36.596Z,21.30
2024-03-28T08:37:40.733Z,24.70
2024-03-28T08:42:46.907Z,24.80
2024-03-28T08:47:49.920Z,25.00
2024-03-28T08:52:56.224Z,22.90
2024-03-28T08:57:59.114Z,24.20
2024-03-28T09:03:02.212Z,26.20
2024-03-28T09:08:05.596Z,31.10
2024-03-28T09:13:08.386Z,25.10
2024-03-28T09:23:15.196Z,24.20
2024-03-28T09:28:19.459Z,24.80
2024-03-28T09:33:22.323Z,28.40
2024-03-28T09:43:28.789Z,27.80
2024-03-28T09:48:32.241Z,37.00
2024-03-28T09:53:36.712Z,38.40
2024-03-28T09:58:39.702Z,29.60
2024-03-28T10:04:09.378Z,36.50
2024-03-28T10:09:14.176Z,37.80
2024-03-28T10:14:23.560Z,34.80
2024-03-28T10:19:29.820Z,42.60
2024-03-28T10:24:34.855Z,38.50
2024-03-28T10:29:38.168Z,30.50
2024-03-28T10:34:46.947Z,36.80
2024-03-28T10:39:50.921Z,41.10
2024-03-28T10:45:00.545Z,43.10
2024-03-28T10:50:26.854Z,34.40
2024-03-28T10:55:36.928Z,28.50
2024-03-28T11:00:40.028Z,42.20
2024-03-28T11:05:43.219Z,37.50
2024-03-28T11:10:46.261Z,38.00
2024-03-28T11:16:10.783Z,33.50
2024-03-28T11:21:13.711Z,41.80
2024-03-28T11:26:21.909Z,46.80
2024-03-28T11:31:25.645Z,44.30
2024-03-28T11:36:32.877Z,42.30
2024-03-28T11:41:37.161Z,35.00
2024-03-28T11:46:39.963Z,45.70
2024-03-28T11:51:42.687Z,41.60
2024-03-28T11:56:46.169Z,69.80
2024-03-28T12:01:50.227Z,53.40
2024-03-28T12:06:55.616Z,40.80
2024-03-28T12:12:11.586Z,39.40
2024-03-28T12:17:15.501Z,41.70
2024-03-28T12:22:19.632Z,45.30
2024-03-28T12:27:22.447Z,49.40
2024-03-28T12:32:29.450Z,54.50
2024-03-28T12:37:33.708Z,44.30
2024-03-28T12:42:37.838Z,47.20
2024-03-28T12:47:40.609Z,43.00
2024-03-28T12:52:51.089Z,42.60
2024-03-28T12:57:54.008Z,46.20
2024-03-28T13:02:57.550Z,52.60
2024-03-28T13:08:02.808Z,48.50
2024-03-28T13:13:05.669Z,43.40
2024-03-28T13:23:11.473Z,38.50
2024-03-28T13:28:14.380Z,41.50
2024-03-28T13:33:17.138Z,43.60
2024-03-28T13:38:20.186Z,46.80
2024-03-28T13:43:22.988Z,45.30
2024-03-28T13:48:26.716Z,42.10
2024-03-28T13:53:32.098Z,40.50
2024-03-28T13:58:34.969Z,49.90
2024-03-28T14:03:38.709Z,41.70
2024-03-28T14:08:41.704Z,51.00
2024-03-28T14:13:44.812Z,48.90
2024-03-28T14:18:48.385Z,40.70
2024-03-28T14:23:51.239Z,52.50
2024-03-28T14:28:54.248Z,42.30
2024-03-28T14:33:58.160Z,52.60
2024-03-28T14:39:00.897Z,62.50
2024-03-28T14:44:03.878Z,45.80
2024-03-28T14:49:06.677Z,52.30
2024-03-28T14:54:09.988Z,47.70
2024-03-28T14:59:12.791Z,56.30
2024-03-28T15:04:19.281Z,62.90
2024-03-28T15:09:22.178Z,45.80
2024-03-28T15:14:25.547Z,50.20
2024-03-28T15:19:29.431Z,41.70
2024-03-28T15:24:39.144Z,49.40
2024-03-28T15:29:41.985Z,44.40
2024-03-28T15:34:44.839Z,51.60
2024-03-28T15:39:47.737Z,43.20
2024-03-28T15:49:54.933Z,26.30
2024-03-28T15:54:57.735Z,30.20
2024-03-28T16:00:00.773Z,20.20
2024-03-28T16:05:04.022Z,19.60
2024-03-28T16:10:07.399Z,22.30
2024-03-28T16:15:11.510Z,27.30
2024-03-28T16:20:14.716Z,20.60
2024-03-28T16:25:17.621Z,23.30
2024-03-28T16:35:23.529Z,19.10
2024-03-28T16:40:26.334Z,31.00
2024-03-28T16:45:29.191Z,25.10
2024-03-28T16:50:36.563Z,22.80
2024-03-28T16:55:40.060Z,27.00
2024-03-28T17:00:42.797Z,24.80
2024-03-28T17:05:53.013Z,36.50
2024-03-28T17:10:55.826Z,28.10
2024-03-28T17:16:03.244Z,37.80
2024-03-28T17:21:07.840Z,27.40
2024-03-28T17:26:10.841Z,23.50
2024-03-28T17:31:14.921Z,27.80
2024-03-28T17:36:17.722Z,25.20
2024-03-28T17:41:20.628Z,30.90
2024-03-28T17:46:23.461Z,25.10
2024-03-28T17:51:26.330Z,25.90
2024-03-28T17:56:29.599Z,25.60
2024-03-28T18:01:33.630Z,27.00
2024-03-28T18:06:38.017Z,24.30
2024-03-28T18:11:40.821Z,24.00
2024-03-28T18:16:44.070Z,23.40
2024-03-28T18:21:47.033Z,23.10
2024-03-28T18:26:50.600Z,21.10
2024-03-28T18:31:53.346Z,22.90
2024-03-28T18:36:56.257Z,17.00
2024-03-28T18:41:59.159Z,19.50
2024-03-28T18:47:02.293Z,22.30
2024-03-28T18:52:05.687Z,17.90
2024-03-28T18:57:08.398Z,25.30
2024-03-28T19:02:11.335Z,21.40
2024-03-28T19:12:19.042Z,20.10
2024-03-28T19:17:22.071Z,19.90
2024-03-28T19:27:27.863Z,30.60
2024-03-28T19:32:30.989Z,39.50
2024-03-28T19:37:33.874Z,48.50
2024-03-28T19:42:36.971Z,59.60
2024-03-28T19:52:44.526Z,47.40
2024-03-28T19:57:48.342Z,42.20
2024-03-28T20:02:51.667Z,47.70
2024-03-28T20:07:55.133Z,50.60
2024-03-28T20:12:57.979Z,50.70
2024-03-28T20:20:24.547Z,37.70
2024-03-28T20:25:27.554Z,34.30
2024-03-28T20:35:34.556Z,33.90
2024-03-28T20:40:37.615Z,45.20
2024-03-28T20:45:40.407Z,158.80
2024-03-28T20:50:45.576Z,58.40
2024-03-28T20:55:50.661Z,43.10
2024-03-28T21:00:53.515Z,58.10
2024-03-28T21:06:08.117Z,55.00
2024-03-28T21:11:11.306Z,62.20
2024-03-28T21:16:14.210Z,134.00
2024-03-28T21:21:17.211Z,92.20
2024-03-28T21:26:20.022Z,60.10
2024-03-28T21:31:23.039Z,50.30
2024-03-28T21:36:26.540Z,37.80
2024-03-28T21:41:31.199Z,75.70
2024-03-28T21:46:35.426Z,79.30
2024-03-28T21:51:38.325Z,61.70
2024-03-28T21:56:41.223Z,51.40
2024-03-28T22:01:44.027Z,57.80
2024-03-28T22:06:46.828Z,53.60
2024-03-28T22:16:14.872Z,40.10
2024-03-28T22:21:18.163Z,46.80
2024-03-28T22:26:20.966Z,38.30
2024-03-28T22:31:26.650Z,37.50
2024-03-28T22:36:29.431Z,39.40
2024-03-28T22:42:40.545Z,42.50
2024-03-28T22:47:43.442Z,32.40
2024-03-28T22:56:32.551Z,30.90
2024-03-28T23:01:35.709Z,34.00
2024-03-28T23:11:32.548Z,20.60
2024-03-28T23:16:35.539Z,22.50
2024-03-28T23:26:40.957Z,22.00
2024-03-28T23:31:43.972Z,21.20
2024-03-28T23:41:51.819Z,23.70
2024-03-28T23:46:54.855Z,25.80
2024-03-28T23:51:57.730Z,20.10
2024-03-28T23:57:00.555Z,29.40
